sensor_id;sensor_type;location;lat;lon;timestamp;temperature;humidity
27741;DHT22;15134;48.768;9.184;2024-02-21T00:00:49;8.70;99.90
27741;DHT22;15134;48.768;9.184;2024-02-21T00:03:15;8.80;99.90
27741;DHT22;15134;48.768;9.184;2024-02-21T00:05:41;8.80;99.90
27741;DHT22;15134;48.768;9.184;2024-02-21T00:08:06;8.70;99.90
27741;DHT22;15134;48.768;9.184;2024-02-21T00:10:32;8.70;99.90
27741;DHT22;15134;48.768;9.184;2024-02-21T00:12:58;8.70;99.90
27741;DHT22;15134;48.768;9.184;2024-02-21T00:15:27;8.70;99.90
27741;DHT22;15134;48.768;9.184;2024-02-21T00:17:53;8.70;99.90
27741;DHT22;15134;48.768;9.184;2024-02-21T00:20:19;8.70;99.90
27741;DHT22;15134;48.768;9.184;2024-02-21T00:22:45;8.70;99.90
27741;DHT22;15134;48.768;9.184;2024-02-21T00:25:11;8.80;99.90
27741;DHT22;15134;48.768;9.184;2024-02-21T00:27:37;8.80;99.90
27741;DHT22;15134;48.768;9.184;2024-02-21T00:30:03;8.80;99.90
27741;DHT22;15134;48.768;9.184;2024-02-21T00:32:29;8.80;99.90
27741;DHT22;15134;48.768;9.184;2024-02-21T00:34:55;8.80;99.90
27741;DHT22;15134;48.768;9.184;2024-02-21T00:37:21;8.80;99.90
27741;DHT22;15134;48.768;9.184;2024-02-21T00:39:46;8.80;99.90
27741;DHT22;15134;48.768;9.184;2024-02-21T00:42:12;8.80;99.90
27741;DHT22;15134;48.768;9.184;2024-02-21T00:44:38;8.80;99.90
27741;DHT22;15134;48.768;9.184;2024-02-21T00:47:03;8.80;99.90
27741;DHT22;15134;48.768;9.184;2024-02-21T00:49:29;8.80;99.90
27741;DHT22;15134;48.768;9.184;2024-02-21T00:51:55;8.80;99.90
27741;DHT22;15134;48.768;9.184;2024-02-21T00:54:21;8.80;99.90
27741;DHT22;15134;48.768;9.184;2024-02-21T00:56:48;8.80;99.90
27741;DHT22;15134;48.768;9.184;2024-02-21T00:59:14;8.80;99.90
27741;DHT22;15134;48.768;9.184;2024-02-21T01:01:39;8.80;99.90
27741;DHT22;15134;48.768;9.184;2024-02-21T01:04:09;8.80;99.90
27741;DHT22;15134;48.768;9.184;2024-02-21T01:06:35;8.70;99.90
27741;DHT22;15134;48.768;9.184;2024-02-21T01:09:00;8.70;99.90
27741;DHT22;15134;48.768;9.184;2024-02-21T01:11:26;8.70;99.90
27741;DHT22;15134;48.768;9.184;2024-02-21T01:13:53;8.70;99.90
27741;DHT22;15134;48.768;9.184;2024-02-21T01:16:18;8.70;99.90
27741;DHT22;15134;48.768;9.184;2024-02-21T01:18:44;8.70;99.90
27741;DHT22;15134;48.768;9.184;2024-02-21T01:21:10;8.70;99.90
27741;DHT22;15134;48.768;9.184;2024-02-21T01:23:36;8.70;99.90
27741;DHT22;15134;48.768;9.184;2024-02-21T01:26:03;8.60;99.90
27741;DHT22;15134;48.768;9.184;2024-02-21T01:28:29;8.60;99.90
27741;DHT22;15134;48.768;9.184;2024-02-21T01:30:56;8.60;99.90
27741;DHT22;15134;48.768;9.184;2024-02-21T01:33:22;8.60;99.90
27741;DHT22;15134;48.768;9.184;2024-02-21T01:35:48;8.50;99.90
27741;DHT22;15134;48.768;9.184;2024-02-21T01:38:15;8.50;99.90
27741;DHT22;15134;48.768;9.184;2024-02-21T01:40:40;8.50;99.90
27741;DHT22;15134;48.768;9.184;2024-02-21T01:43:19;8.50;99.90
27741;DHT22;15134;48.768;9.184;2024-02-21T01:45:49;8.50;99.90
27741;DHT22;15134;48.768;9.184;2024-02-21T01:48:17;8.40;99.90
27741;DHT22;15134;48.768;9.184;2024-02-21T01:50:45;8.40;99.90
27741;DHT22;15134;48.768;9.184;2024-02-21T01:53:12;8.40;99.90
27741;DHT22;15134;48.768;9.184;2024-02-21T01:55:44;8.40;99.90
27741;DHT22;15134;48.768;9.184;2024-02-21T01:58:12;8.30;99.90
27741;DHT22;15134;48.768;9.184;2024-02-21T02:00:41;8.30;99.90
27741;DHT22;15134;48.768;9.184;2024-02-21T02:03:09;8.30;99.90
27741;DHT22;15134;48.768;9.184;2024-02-21T02:05:35;8.30;99.90
27741;DHT22;15134;48.768;9.184;2024-02-21T02:08:01;8.40;99.90
27741;DHT22;15134;48.768;9.184;2024-02-21T02:10:27;8.40;99.90
27741;DHT22;15134;48.768;9.184;2024-02-21T02:12:53;8.30;99.90
27741;DHT22;15134;48.768;9.184;2024-02-21T02:15:19;8.40;99.90
27741;DHT22;15134;48.768;9.184;2024-02-21T02:17:44;8.30;99.90
27741;DHT22;15134;48.768;9.184;2024-02-21T02:20:11;8.30;99.90
27741;DHT22;15134;48.768;9.184;2024-02-21T02:22:37;8.30;99.90
27741;DHT22;15134;48.768;9.184;2024-02-21T02:25:04;8.30;99.90
27741;DHT22;15134;48.768;9.184;2024-02-21T02:27:30;8.30;99.90
27741;DHT22;15134;48.768;9.184;2024-02-21T02:29:55;8.30;99.90
27741;DHT22;15134;48.768;9.184;2024-02-21T02:32:26;8.40;99.90
27741;DHT22;15134;48.768;9.184;2024-02-21T02:34:52;8.50;99.90
27741;DHT22;15134;48.768;9.184;2024-02-21T02:37:18;8.50;99.90
27741;DHT22;15134;48.768;9.184;2024-02-21T02:39:43;8.50;99.90
27741;DHT22;15134;48.768;9.184;2024-02-21T02:42:09;8.50;99.90
27741;DHT22;15134;48.768;9.184;2024-02-21T02:44:35;8.50;99.90
27741;DHT22;15134;48.768;9.184;2024-02-21T02:47:01;8.50;99.90
27741;DHT22;15134;48.768;9.184;2024-02-21T02:49:26;8.40;99.90
27741;DHT22;15134;48.768;9.184;2024-02-21T02:51:52;8.50;99.90
27741;DHT22;15134;48.768;9.184;2024-02-21T02:54:18;8.50;99.90
27741;DHT22;15134;48.768;9.184;2024-02-21T02:56:43;8.50;99.90
27741;DHT22;15134;48.768;9.184;2024-02-21T02:59:09;8.40;99.90
27741;DHT22;15134;48.768;9.184;2024-02-21T03:01:35;8.40;99.90
27741;DHT22;15134;48.768;9.184;2024-02-21T03:04:01;8.50;99.90
27741;DHT22;15134;48.768;9.184;2024-02-21T03:06:27;8.50;99.90
27741;DHT22;15134;48.768;9.184;2024-02-21T03:08:52;8.40;99.90
27741;DHT22;15134;48.768;9.184;2024-02-21T03:11:20;8.40;99.90
27741;DHT22;15134;48.768;9.184;2024-02-21T03:13:46;8.20;99.90
27741;DHT22;15134;48.768;9.184;2024-02-21T03:16:12;8.20;99.90
27741;DHT22;15134;48.768;9.184;2024-02-21T03:18:38;8.20;99.90
27741;DHT22;15134;48.768;9.184;2024-02-21T03:21:05;8.20;99.90
27741;DHT22;15134;48.768;9.184;2024-02-21T03:23:31;8.20;99.90
27741;DHT22;15134;48.768;9.184;2024-02-21T03:25:57;8.20;99.90
27741;DHT22;15134;48.768;9.184;2024-02-21T03:28:22;8.20;99.90
27741;DHT22;15134;48.768;9.184;2024-02-21T03:30:48;8.20;99.90
27741;DHT22;15134;48.768;9.184;2024-02-21T03:33:14;8.30;99.90
27741;DHT22;15134;48.768;9.184;2024-02-21T03:35:39;8.30;99.90
27741;DHT22;15134;48.768;9.184;2024-02-21T03:38:05;8.20;99.90
27741;DHT22;15134;48.768;9.184;2024-02-21T03:40:31;8.30;99.90
27741;DHT22;15134;48.768;9.184;2024-02-21T03:42:56;8.20;99.90
27741;DHT22;15134;48.768;9.184;2024-02-21T03:45:22;8.20;99.90
27741;DHT22;15134;48.768;9.184;2024-02-21T03:47:48;8.10;99.90
27741;DHT22;15134;48.768;9.184;2024-02-21T03:50:14;8.10;99.90
27741;DHT22;15134;48.768;9.184;2024-02-21T03:52:39;8.20;99.90
27741;DHT22;15134;48.768;9.184;2024-02-21T03:55:05;8.20;99.90
27741;DHT22;15134;48.768;9.184;2024-02-21T03:57:33;8.20;99.90
27741;DHT22;15134;48.768;9.184;2024-02-21T03:59:58;8.20;99.90
27741;DHT22;15134;48.768;9.184;2024-02-21T04:02:24;8.20;99.90
27741;DHT22;15134;48.768;9.184;2024-02-21T04:04:50;8.20;99.90
27741;DHT22;15134;48.768;9.184;2024-02-21T04:07:15;8.20;99.90
27741;DHT22;15134;48.768;9.184;2024-02-21T04:09:41;8.30;99.90
27741;DHT22;15134;48.768;9.184;2024-02-21T04:12:08;8.20;99.90
27741;DHT22;15134;48.768;9.184;2024-02-21T04:14:35;8.30;99.90
27741;DHT22;15134;48.768;9.184;2024-02-21T04:17:01;8.20;99.90
27741;DHT22;15134;48.768;9.184;2024-02-21T04:19:27;8.20;99.90
27741;DHT22;15134;48.768;9.184;2024-02-21T04:21:53;8.20;99.90
27741;DHT22;15134;48.768;9.184;2024-02-21T04:24:18;8.10;99.90
27741;DHT22;15134;48.768;9.184;2024-02-21T04:26:44;8.10;99.90
27741;DHT22;15134;48.768;9.184;2024-02-21T04:29:10;8.10;99.90
27741;DHT22;15134;48.768;9.184;2024-02-21T04:31:36;8.00;99.90
27741;DHT22;15134;48.768;9.184;2024-02-21T04:34:02;8.00;99.90
27741;DHT22;15134;48.768;9.184;2024-02-21T04:36:28;8.10;99.90
27741;DHT22;15134;48.768;9.184;2024-02-21T04:38:54;8.00;99.90
27741;DHT22;15134;48.768;9.184;2024-02-21T04:41:19;7.90;99.90
27741;DHT22;15134;48.768;9.184;2024-02-21T04:43:48;7.90;99.90
27741;DHT22;15134;48.768;9.184;2024-02-21T04:46:14;7.90;99.90
27741;DHT22;15134;48.768;9.184;2024-02-21T04:48:39;7.90;99.90
27741;DHT22;15134;48.768;9.184;2024-02-21T04:51:05;7.90;99.90
27741;DHT22;15134;48.768;9.184;2024-02-21T04:53:31;7.90;99.90
27741;DHT22;15134;48.768;9.184;2024-02-21T04:55:57;7.90;99.90
27741;DHT22;15134;48.768;9.184;2024-02-21T04:58:22;7.80;99.90
27741;DHT22;15134;48.768;9.184;2024-02-21T05:00:48;7.80;99.90
27741;DHT22;15134;48.768;9.184;2024-02-21T05:03:14;7.70;99.90
27741;DHT22;15134;48.768;9.184;2024-02-21T05:05:40;7.70;99.90
27741;DHT22;15134;48.768;9.184;2024-02-21T05:08:05;7.70;99.90
27741;DHT22;15134;48.768;9.184;2024-02-21T05:10:31;7.70;99.90
27741;DHT22;15134;48.768;9.184;2024-02-21T05:12:57;7.60;99.90
27741;DHT22;15134;48.768;9.184;2024-02-21T05:15:24;7.50;99.90
27741;DHT22;15134;48.768;9.184;2024-02-21T05:17:50;7.60;99.90
27741;DHT22;15134;48.768;9.184;2024-02-21T05:20:15;7.50;99.90
27741;DHT22;15134;48.768;9.184;2024-02-21T05:22:42;7.60;99.90
27741;DHT22;15134;48.768;9.184;2024-02-21T05:25:08;7.60;99.90
27741;DHT22;15134;48.768;9.184;2024-02-21T05:27:34;7.50;99.90
27741;DHT22;15134;48.768;9.184;2024-02-21T05:30:01;7.50;99.90
27741;DHT22;15134;48.768;9.184;2024-02-21T05:32:26;7.50;99.90
27741;DHT22;15134;48.768;9.184;2024-02-21T05:34:52;7.40;99.90
27741;DHT22;15134;48.768;9.184;2024-02-21T05:37:18;7.40;99.90
27741;DHT22;15134;48.768;9.184;2024-02-21T05:39:44;7.50;99.90
27741;DHT22;15134;48.768;9.184;2024-02-21T05:42:09;7.50;99.90
27741;DHT22;15134;48.768;9.184;2024-02-21T05:44:35;7.50;99.90
27741;DHT22;15134;48.768;9.184;2024-02-21T05:47:01;7.60;99.90
27741;DHT22;15134;48.768;9.184;2024-02-21T05:49:27;7.60;99.90
27741;DHT22;15134;48.768;9.184;2024-02-21T05:51:52;7.70;99.90
27741;DHT22;15134;48.768;9.184;2024-02-21T05:54:18;7.70;99.90
27741;DHT22;15134;48.768;9.184;2024-02-21T05:56:48;7.70;99.90
27741;DHT22;15134;48.768;9.184;2024-02-21T05:59:13;7.70;99.90
27741;DHT22;15134;48.768;9.184;2024-02-21T06:01:39;7.70;99.90
27741;DHT22;15134;48.768;9.184;2024-02-21T06:04:05;7.80;99.90
27741;DHT22;15134;48.768;9.184;2024-02-21T06:06:31;7.80;99.90
27741;DHT22;15134;48.768;9.184;2024-02-21T06:08:56;7.80;99.90
27741;DHT22;15134;48.768;9.184;2024-02-21T06:11:24;7.80;99.90
27741;DHT22;15134;48.768;9.184;2024-02-21T06:13:50;7.80;99.90
27741;DHT22;15134;48.768;9.184;2024-02-21T06:16:15;7.80;99.90
27741;DHT22;15134;48.768;9.184;2024-02-21T06:18:41;7.70;99.90
27741;DHT22;15134;48.768;9.184;2024-02-21T06:21:07;7.70;99.90
27741;DHT22;15134;48.768;9.184;2024-02-21T06:23:33;7.70;99.90
27741;DHT22;15134;48.768;9.184;2024-02-21T06:25:59;7.70;99.90
27741;DHT22;15134;48.768;9.184;2024-02-21T06:28:24;7.80;99.90
27741;DHT22;15134;48.768;9.184;2024-02-21T06:30:50;7.70;99.90
27741;DHT22;15134;48.768;9.184;2024-02-21T06:33:16;7.70;99.90
27741;DHT22;15134;48.768;9.184;2024-02-21T06:35:42;7.70;99.90
27741;DHT22;15134;48.768;9.184;2024-02-21T06:38:08;7.70;99.90
27741;DHT22;15134;48.768;9.184;2024-02-21T06:40:34;7.70;99.90
27741;DHT22;15134;48.768;9.184;2024-02-21T06:43:04;7.70;99.90
27741;DHT22;15134;48.768;9.184;2024-02-21T06:45:30;7.70;99.90
27741;DHT22;15134;48.768;9.184;2024-02-21T06:47:56;7.70;99.90
27741;DHT22;15134;48.768;9.184;2024-02-21T06:50:22;7.70;99.90
27741;DHT22;15134;48.768;9.184;2024-02-21T06:52:48;7.70;99.90
27741;DHT22;15134;48.768;9.184;2024-02-21T06:55:13;7.70;99.90
27741;DHT22;15134;48.768;9.184;2024-02-21T06:57:39;7.80;99.90
27741;DHT22;15134;48.768;9.184;2024-02-21T07:00:05;7.80;99.90
27741;DHT22;15134;48.768;9.184;2024-02-21T07:02:34;7.90;99.90
27741;DHT22;15134;48.768;9.184;2024-02-21T07:04:59;7.90;99.90
27741;DHT22;15134;48.768;9.184;2024-02-21T07:07:25;8.00;99.90
27741;DHT22;15134;48.768;9.184;2024-02-21T07:09:51;8.10;99.90
27741;DHT22;15134;48.768;9.184;2024-02-21T07:12:18;8.00;99.90
27741;DHT22;15134;48.768;9.184;2024-02-21T07:14:44;8.10;99.90
27741;DHT22;15134;48.768;9.184;2024-02-21T07:17:10;8.10;99.90
27741;DHT22;15134;48.768;9.184;2024-02-21T07:19:36;8.20;99.90
27741;DHT22;15134;48.768;9.184;2024-02-21T07:22:02;8.20;99.90
27741;DHT22;15134;48.768;9.184;2024-02-21T07:24:28;8.20;99.90
27741;DHT22;15134;48.768;9.184;2024-02-21T07:26:54;8.30;99.90
27741;DHT22;15134;48.768;9.184;2024-02-21T07:29:19;8.30;99.90
27741;DHT22;15134;48.768;9.184;2024-02-21T07:31:45;8.40;99.90
27741;DHT22;15134;48.768;9.184;2024-02-21T07:34:13;8.50;99.90
27741;DHT22;15134;48.768;9.184;2024-02-21T07:36:40;8.50;99.90
27741;DHT22;15134;48.768;9.184;2024-02-21T07:39:08;8.50;99.90
27741;DHT22;15134;48.768;9.184;2024-02-21T07:41:33;8.60;99.90
27741;DHT22;15134;48.768;9.184;2024-02-21T07:44:00;8.70;99.90
27741;DHT22;15134;48.768;9.184;2024-02-21T07:46:26;8.70;99.90
27741;DHT22;15134;48.768;9.184;2024-02-21T07:48:51;8.80;99.90
27741;DHT22;15134;48.768;9.184;2024-02-21T07:51:17;8.80;99.90
27741;DHT22;15134;48.768;9.184;2024-02-21T07:53:44;8.90;99.90
27741;DHT22;15134;48.768;9.184;2024-02-21T07:56:14;9.00;99.90
27741;DHT22;15134;48.768;9.184;2024-02-21T07:58:40;9.00;99.90
27741;DHT22;15134;48.768;9.184;2024-02-21T08:01:07;9.10;99.90
27741;DHT22;15134;48.768;9.184;2024-02-21T08:03:32;9.10;99.90
27741;DHT22;15134;48.768;9.184;2024-02-21T08:05:58;9.20;99.90
27741;DHT22;15134;48.768;9.184;2024-02-21T08:08:24;9.20;99.90
27741;DHT22;15134;48.768;9.184;2024-02-21T08:10:50;9.20;99.90
27741;DHT22;15134;48.768;9.184;2024-02-21T08:13:16;9.20;99.90
27741;DHT22;15134;48.768;9.184;2024-02-21T08:15:42;9.30;99.90
27741;DHT22;15134;48.768;9.184;2024-02-21T08:18:08;9.40;99.90
27741;DHT22;15134;48.768;9.184;2024-02-21T08:20:34;9.40;99.90
27741;DHT22;15134;48.768;9.184;2024-02-21T08:23:00;9.50;99.90
27741;DHT22;15134;48.768;9.184;2024-02-21T08:25:26;9.60;99.90
27741;DHT22;15134;48.768;9.184;2024-02-21T08:27:56;9.70;99.90
27741;DHT22;15134;48.768;9.184;2024-02-21T08:30:22;9.70;99.90
27741;DHT22;15134;48.768;9.184;2024-02-21T08:32:48;9.90;99.90
27741;DHT22;15134;48.768;9.184;2024-02-21T08:35:15;10.00;99.90
27741;DHT22;15134;48.768;9.184;2024-02-21T08:37:41;10.00;99.90
27741;DHT22;15134;48.768;9.184;2024-02-21T08:40:09;10.20;99.90
27741;DHT22;15134;48.768;9.184;2024-02-21T08:42:41;10.30;99.90
27741;DHT22;15134;48.768;9.184;2024-02-21T08:45:08;10.30;99.90
27741;DHT22;15134;48.768;9.184;2024-02-21T08:47:33;10.30;99.90
27741;DHT22;15134;48.768;9.184;2024-02-21T08:50:01;10.30;99.90
27741;DHT22;15134;48.768;9.184;2024-02-21T08:52:27;10.40;99.90
27741;DHT22;15134;48.768;9.184;2024-02-21T08:54:53;10.50;99.90
27741;DHT22;15134;48.768;9.184;2024-02-21T08:57:20;10.60;99.90
27741;DHT22;15134;48.768;9.184;2024-02-21T08:59:46;10.60;99.90
27741;DHT22;15134;48.768;9.184;2024-02-21T09:02:13;10.70;99.90
27741;DHT22;15134;48.768;9.184;2024-02-21T09:04:38;10.60;99.90
27741;DHT22;15134;48.768;9.184;2024-02-21T09:07:04;10.70;99.90
27741;DHT22;15134;48.768;9.184;2024-02-21T09:09:30;10.70;99.90
27741;DHT22;15134;48.768;9.184;2024-02-21T09:11:57;10.70;99.90
27741;DHT22;15134;48.768;9.184;2024-02-21T09:14:23;10.70;99.90
27741;DHT22;15134;48.768;9.184;2024-02-21T09:16:49;10.80;99.90
27741;DHT22;15134;48.768;9.184;2024-02-21T09:19:15;10.90;99.90
27741;DHT22;15134;48.768;9.184;2024-02-21T09:21:40;10.90;99.90
27741;DHT22;15134;48.768;9.184;2024-02-21T09:24:06;11.00;99.90
27741;DHT22;15134;48.768;9.184;2024-02-21T09:26:32;11.00;99.90
27741;DHT22;15134;48.768;9.184;2024-02-21T09:28:58;11.10;99.90
27741;DHT22;15134;48.768;9.184;2024-02-21T09:31:23;11.10;99.90
27741;DHT22;15134;48.768;9.184;2024-02-21T09:33:49;11.10;99.90
27741;DHT22;15134;48.768;9.184;2024-02-21T09:36:15;11.30;99.90
27741;DHT22;15134;48.768;9.184;2024-02-21T09:38:41;11.30;99.90
27741;DHT22;15134;48.768;9.184;2024-02-21T09:41:26;11.40;99.90
27741;DHT22;15134;48.768;9.184;2024-02-21T09:43:55;11.60;99.90
27741;DHT22;15134;48.768;9.184;2024-02-21T09:46:28;11.70;99.90
27741;DHT22;15134;48.768;9.184;2024-02-21T09:49:30;11.80;99.90
27741;DHT22;15134;48.768;9.184;2024-02-21T09:51:57;12.00;99.90
27741;DHT22;15134;48.768;9.184;2024-02-21T09:54:24;12.10;99.90
27741;DHT22;15134;48.768;9.184;2024-02-21T09:56:50;12.30;99.90
27741;DHT22;15134;48.768;9.184;2024-02-21T09:59:16;12.30;99.90
27741;DHT22;15134;48.768;9.184;2024-02-21T10:01:43;12.40;99.90
27741;DHT22;15134;48.768;9.184;2024-02-21T10:04:10;12.50;99.90
27741;DHT22;15134;48.768;9.184;2024-02-21T10:06:35;12.50;99.90
27741;DHT22;15134;48.768;9.184;2024-02-21T10:09:03;12.60;99.90
27741;DHT22;15134;48.768;9.184;2024-02-21T10:11:29;12.70;99.90
27741;DHT22;15134;48.768;9.184;2024-02-21T10:14:08;12.70;99.90
27741;DHT22;15134;48.768;9.184;2024-02-21T10:16:34;12.70;99.90
27741;DHT22;15134;48.768;9.184;2024-02-21T10:19:00;12.60;99.90
27741;DHT22;15134;48.768;9.184;2024-02-21T10:21:26;12.60;99.90
27741;DHT22;15134;48.768;9.184;2024-02-21T10:23:52;12.50;99.90
27741;DHT22;15134;48.768;9.184;2024-02-21T10:26:19;12.60;99.90
27741;DHT22;15134;48.768;9.184;2024-02-21T10:28:45;12.60;99.90
27741;DHT22;15134;48.768;9.184;2024-02-21T10:31:24;12.60;99.90
27741;DHT22;15134;48.768;9.184;2024-02-21T10:33:58;12.70;99.90
27741;DHT22;15134;48.768;9.184;2024-02-21T10:36:24;12.80;99.90
27741;DHT22;15134;48.768;9.184;2024-02-21T10:38:51;12.80;99.90
27741;DHT22;15134;48.768;9.184;2024-02-21T10:41:19;12.90;99.90
27741;DHT22;15134;48.768;9.184;2024-02-21T10:43:52;13.00;99.90
27741;DHT22;15134;48.768;9.184;2024-02-21T10:46:22;13.00;99.90
27741;DHT22;15134;48.768;9.184;2024-02-21T10:49:01;13.10;99.90
27741;DHT22;15134;48.768;9.184;2024-02-21T10:51:33;13.10;99.90
27741;DHT22;15134;48.768;9.184;2024-02-21T10:56:30;13.30;99.90
27741;DHT22;15134;48.768;9.184;2024-02-21T10:59:05;13.20;99.90
27741;DHT22;15134;48.768;9.184;2024-02-21T11:01:31;13.20;99.90
27741;DHT22;15134;48.768;9.184;2024-02-21T11:03:59;13.20;99.90
27741;DHT22;15134;48.768;9.184;2024-02-21T11:06:27;13.20;99.90
27741;DHT22;15134;48.768;9.184;2024-02-21T11:09:04;13.20;99.90
27741;DHT22;15134;48.768;9.184;2024-02-21T11:11:37;13.20;99.90
27741;DHT22;15134;48.768;9.184;2024-02-21T11:14:07;13.10;99.90
27741;DHT22;15134;48.768;9.184;2024-02-21T11:16:41;13.10;99.90
27741;DHT22;15134;48.768;9.184;2024-02-21T11:19:07;13.00;99.90
27741;DHT22;15134;48.768;9.184;2024-02-21T11:21:34;13.00;99.90
27741;DHT22;15134;48.768;9.184;2024-02-21T11:24:01;13.10;99.90
27741;DHT22;15134;48.768;9.184;2024-02-21T11:26:29;13.10;99.90
27741;DHT22;15134;48.768;9.184;2024-02-21T11:29:00;13.20;99.90
27741;DHT22;15134;48.768;9.184;2024-02-21T11:31:38;13.20;99.90
27741;DHT22;15134;48.768;9.184;2024-02-21T11:34:08;13.20;99.90
27741;DHT22;15134;48.768;9.184;2024-02-21T11:36:34;13.20;99.90
27741;DHT22;15134;48.768;9.184;2024-02-21T11:39:04;13.20;99.90
27741;DHT22;15134;48.768;9.184;2024-02-21T11:41:30;13.30;99.90
27741;DHT22;15134;48.768;9.184;2024-02-21T11:43:55;13.30;99.90
27741;DHT22;15134;48.768;9.184;2024-02-21T11:46:22;13.20;99.90
27741;DHT22;15134;48.768;9.184;2024-02-21T11:48:49;13.30;99.90
27741;DHT22;15134;48.768;9.184;2024-02-21T11:51:35;13.30;99.90
27741;DHT22;15134;48.768;9.184;2024-02-21T11:54:01;13.40;99.90
27741;DHT22;15134;48.768;9.184;2024-02-21T11:56:27;13.50;99.90
27741;DHT22;15134;48.768;9.184;2024-02-21T11:58:52;13.50;99.90
27741;DHT22;15134;48.768;9.184;2024-02-21T12:01:18;13.40;99.90
27741;DHT22;15134;48.768;9.184;2024-02-21T12:03:44;13.40;99.90
27741;DHT22;15134;48.768;9.184;2024-02-21T12:06:16;13.30;99.90
27741;DHT22;15134;48.768;9.184;2024-02-21T12:08:46;13.20;99.90
27741;DHT22;15134;48.768;9.184;2024-02-21T12:11:22;13.20;99.90
27741;DHT22;15134;48.768;9.184;2024-02-21T12:13:58;13.20;99.90
27741;DHT22;15134;48.768;9.184;2024-02-21T12:16:27;13.30;99.90
27741;DHT22;15134;48.768;9.184;2024-02-21T12:18:55;13.20;99.90
27741;DHT22;15134;48.768;9.184;2024-02-21T12:21:24;13.20;99.90
27741;DHT22;15134;48.768;9.184;2024-02-21T12:23:50;13.30;99.90
27741;DHT22;15134;48.768;9.184;2024-02-21T12:26:16;13.30;99.90
27741;DHT22;15134;48.768;9.184;2024-02-21T12:28:41;13.30;99.90
27741;DHT22;15134;48.768;9.184;2024-02-21T12:31:07;13.40;99.90
27741;DHT22;15134;48.768;9.184;2024-02-21T12:33:33;13.40;99.90
27741;DHT22;15134;48.768;9.184;2024-02-21T12:35:58;13.40;99.90
27741;DHT22;15134;48.768;9.184;2024-02-21T12:38:24;13.40;99.90
27741;DHT22;15134;48.768;9.184;2024-02-21T12:40:50;13.40;99.90
27741;DHT22;15134;48.768;9.184;2024-02-21T12:43:16;13.40;99.90
27741;DHT22;15134;48.768;9.184;2024-02-21T12:45:41;13.40;99.90
27741;DHT22;15134;48.768;9.184;2024-02-21T12:48:07;13.40;99.90
27741;DHT22;15134;48.768;9.184;2024-02-21T12:50:33;13.40;99.90
27741;DHT22;15134;48.768;9.184;2024-02-21T12:52:59;13.40;99.90
27741;DHT22;15134;48.768;9.184;2024-02-21T12:55:24;13.50;99.90
27741;DHT22;15134;48.768;9.184;2024-02-21T12:57:50;13.50;99.90
27741;DHT22;15134;48.768;9.184;2024-02-21T13:00:16;13.50;99.90
27741;DHT22;15134;48.768;9.184;2024-02-21T13:02:42;13.50;99.90
27741;DHT22;15134;48.768;9.184;2024-02-21T13:05:08;13.50;99.90
27741;DHT22;15134;48.768;9.184;2024-02-21T13:07:34;13.50;99.90
27741;DHT22;15134;48.768;9.184;2024-02-21T13:10:00;13.50;99.90
27741;DHT22;15134;48.768;9.184;2024-02-21T13:12:25;13.50;99.90
27741;DHT22;15134;48.768;9.184;2024-02-21T13:14:55;13.50;99.90
27741;DHT22;15134;48.768;9.184;2024-02-21T13:17:21;13.60;99.90
27741;DHT22;15134;48.768;9.184;2024-02-21T13:19:48;13.60;99.90
27741;DHT22;15134;48.768;9.184;2024-02-21T13:22:14;13.60;99.90
27741;DHT22;15134;48.768;9.184;2024-02-21T13:24:39;13.60;99.90
27741;DHT22;15134;48.768;9.184;2024-02-21T13:27:05;13.50;99.90
27741;DHT22;15134;48.768;9.184;2024-02-21T13:29:31;13.50;99.90
27741;DHT22;15134;48.768;9.184;2024-02-21T13:31:57;13.50;99.90
27741;DHT22;15134;48.768;9.184;2024-02-21T13:34:22;13.50;99.90
27741;DHT22;15134;48.768;9.184;2024-02-21T13:36:48;13.40;99.90
27741;DHT22;15134;48.768;9.184;2024-02-21T13:39:14;13.40;99.90
27741;DHT22;15134;48.768;9.184;2024-02-21T13:41:42;13.40;99.90
27741;DHT22;15134;48.768;9.184;2024-02-21T13:44:08;13.40;99.90
27741;DHT22;15134;48.768;9.184;2024-02-21T13:46:34;13.40;99.90
27741;DHT22;15134;48.768;9.184;2024-02-21T13:49:04;13.40;99.90
27741;DHT22;15134;48.768;9.184;2024-02-21T13:51:35;13.40;99.90
27741;DHT22;15134;48.768;9.184;2024-02-21T13:54:02;13.40;99.90
27741;DHT22;15134;48.768;9.184;2024-02-21T13:56:30;13.40;99.90
27741;DHT22;15134;48.768;9.184;2024-02-21T13:58:58;13.40;99.90
27741;DHT22;15134;48.768;9.184;2024-02-21T14:01:26;13.40;99.90
27741;DHT22;15134;48.768;9.184;2024-02-21T14:03:53;13.40;99.90
27741;DHT22;15134;48.768;9.184;2024-02-21T14:06:19;13.40;99.90
27741;DHT22;15134;48.768;9.184;2024-02-21T14:08:45;13.40;99.90
27741;DHT22;15134;48.768;9.184;2024-02-21T14:11:11;13.30;99.90
27741;DHT22;15134;48.768;9.184;2024-02-21T14:13:36;13.30;99.90
27741;DHT22;15134;48.768;9.184;2024-02-21T14:16:02;13.30;99.90
27741;DHT22;15134;48.768;9.184;2024-02-21T14:18:28;13.30;99.90
27741;DHT22;15134;48.768;9.184;2024-02-21T14:20:54;13.20;99.90
27741;DHT22;15134;48.768;9.184;2024-02-21T14:23:20;13.30;99.90
27741;DHT22;15134;48.768;9.184;2024-02-21T14:25:47;13.20;99.90
27741;DHT22;15134;48.768;9.184;2024-02-21T14:28:13;13.20;99.90
27741;DHT22;15134;48.768;9.184;2024-02-21T14:30:38;13.20;99.90
27741;DHT22;15134;48.768;9.184;2024-02-21T14:33:04;13.10;99.90
27741;DHT22;15134;48.768;9.184;2024-02-21T14:35:30;13.10;99.90
27741;DHT22;15134;48.768;9.184;2024-02-21T14:37:56;13.10;99.90
27741;DHT22;15134;48.768;9.184;2024-02-21T14:40:23;13.10;99.90
27741;DHT22;15134;48.768;9.184;2024-02-21T14:42:48;13.20;99.90
27741;DHT22;15134;48.768;9.184;2024-02-21T14:45:14;13.10;99.90
27741;DHT22;15134;48.768;9.184;2024-02-21T14:47:40;13.20;99.90
27741;DHT22;15134;48.768;9.184;2024-02-21T14:50:06;13.20;99.90
27741;DHT22;15134;48.768;9.184;2024-02-21T14:52:32;13.20;99.90
27741;DHT22;15134;48.768;9.184;2024-02-21T14:54:58;13.30;99.90
27741;DHT22;15134;48.768;9.184;2024-02-21T14:57:25;13.20;99.90
27741;DHT22;15134;48.768;9.184;2024-02-21T14:59:50;13.20;99.90
27741;DHT22;15134;48.768;9.184;2024-02-21T15:02:22;13.20;99.90
27741;DHT22;15134;48.768;9.184;2024-02-21T15:04:48;13.20;99.90
27741;DHT22;15134;48.768;9.184;2024-02-21T15:07:14;13.20;99.90
27741;DHT22;15134;48.768;9.184;2024-02-21T15:09:40;13.10;99.90
27741;DHT22;15134;48.768;9.184;2024-02-21T15:12:06;13.10;99.90
27741;DHT22;15134;48.768;9.184;2024-02-21T15:14:32;13.10;99.90
27741;DHT22;15134;48.768;9.184;2024-02-21T15:16:58;13.00;99.90
27741;DHT22;15134;48.768;9.184;2024-02-21T15:19:23;13.00;99.90
27741;DHT22;15134;48.768;9.184;2024-02-21T15:21:49;13.00;99.90
27741;DHT22;15134;48.768;9.184;2024-02-21T15:24:15;13.00;99.90
27741;DHT22;15134;48.768;9.184;2024-02-21T15:26:43;13.00;99.90
27741;DHT22;15134;48.768;9.184;2024-02-21T15:29:08;12.90;99.90
27741;DHT22;15134;48.768;9.184;2024-02-21T15:31:34;12.90;99.90
27741;DHT22;15134;48.768;9.184;2024-02-21T15:34:00;12.90;99.90
27741;DHT22;15134;48.768;9.184;2024-02-21T15:36:26;12.80;99.90
27741;DHT22;15134;48.768;9.184;2024-02-21T15:38:54;12.80;99.90